createdAt,value
2019-03-02T00:00:05.539Z,-1.80
2019-03-02T00:02:41.223Z,-1.80
2019-03-02T00:05:13.927Z,-1.90
2019-03-02T00:07:47.694Z,-1.80
2019-03-02T00:10:21.035Z,-1.80
2019-03-02T00:12:55.206Z,-1.80
2019-03-02T00:15:30.709Z,-1.80
2019-03-02T00:18:04.036Z,-1.80
2019-03-02T00:20:37.639Z,-1.80
2019-03-02T00:23:11.294Z,-1.70
2019-03-02T00:25:41.240Z,-1.80
2019-03-02T00:28:12.602Z,-1.70
2019-03-02T00:30:43.438Z,-1.60
2019-03-02T00:33:16.606Z,-1.60
2019-03-02T00:35:52.417Z,-1.60
2019-03-02T00:38:24.222Z,-1.60
2019-03-02T00:40:57.963Z,-1.50
2019-03-02T00:43:31.839Z,-1.50
2019-03-02T00:46:06.923Z,-1.50
2019-03-02T00:48:43.611Z,-1.50
2019-03-02T00:51:13.214Z,-1.50
2019-03-02T00:53:43.499Z,-1.50
2019-03-02T00:56:17.154Z,-1.60
2019-03-02T00:58:50.215Z,-1.70
2019-03-02T01:01:25.732Z,-1.70
2019-03-02T01:03:59.107Z,-1.70
2019-03-02T01:06:32.831Z,-1.80
2019-03-02T01:09:07.961Z,-1.80
2019-03-02T01:11:39.218Z,-1.80
2019-03-02T01:14:12.926Z,-1.80
2019-03-02T01:16:46.111Z,-1.70
2019-03-02T01:19:20.832Z,-1.60
2019-03-02T01:21:55.344Z,-1.60
2019-03-02T01:24:30.367Z,-1.50
2019-03-02T01:27:05.027Z,-1.50
2019-03-02T01:29:40.480Z,-1.50
2019-03-02T01:32:16.219Z,-1.50
2019-03-02T01:34:49.503Z,-1.50
2019-03-02T01:37:22.687Z,-1.50
2019-03-02T01:39:55.806Z,-1.60
2019-03-02T01:42:30.820Z,-1.60
2019-03-02T01:45:04.774Z,-1.70
2019-03-02T01:47:37.060Z,-1.80
2019-03-02T01:50:08.613Z,-1.80
2019-03-02T01:52:40.456Z,-1.90
2019-03-02T01:55:11.470Z,-1.90
2019-03-02T01:57:41.492Z,-1.90
2019-03-02T02:00:15.413Z,-1.90
2019-03-02T02:02:51.782Z,-2.00
2019-03-02T02:05:24.290Z,-2.00
2019-03-02T02:07:55.139Z,-2.00
2019-03-02T02:10:29.183Z,-2.00
2019-03-02T02:13:02.740Z,-2.00
2019-03-02T02:15:34.876Z,-2.00
2019-03-02T02:18:06.883Z,-2.00
2019-03-02T02:20:40.799Z,-2.00
2019-03-02T02:23:14.069Z,-2.00
2019-03-02T02:25:47.844Z,-2.00
2019-03-02T02:28:18.915Z,-2.00
2019-03-02T02:30:51.903Z,-2.00
2019-03-02T02:33:26.848Z,-1.90
2019-03-02T02:36:03.625Z,-1.90
2019-03-02T02:38:37.767Z,-1.80
2019-03-02T02:41:11.935Z,-1.80
2019-03-02T02:43:45.656Z,-1.90
2019-03-02T02:46:15.815Z,-1.80
2019-03-02T02:48:45.142Z,-1.80
2019-03-02T02:51:16.103Z,-1.70
2019-03-02T02:53:47.163Z,-1.70
2019-03-02T02:56:19.451Z,-1.80
2019-03-02T02:58:55.796Z,-1.70
2019-03-02T03:01:33.184Z,-1.70
2019-03-02T03:04:02.133Z,-1.70
2019-03-02T03:06:34.247Z,-1.60
2019-03-02T03:09:11.476Z,-1.60
2019-03-02T03:11:46.495Z,-1.60
2019-03-02T03:14:21.556Z,-1.60
2019-03-02T03:16:54.144Z,-1.60
2019-03-02T03:19:31.171Z,-1.60
2019-03-02T03:22:07.302Z,-1.60
2019-03-02T03:24:40.612Z,-1.60
2019-03-02T03:27:13.252Z,-1.60
2019-03-02T03:29:49.346Z,-1.70
2019-03-02T03:32:20.160Z,-1.70
2019-03-02T03:34:54.856Z,-1.70
2019-03-02T03:37:30.150Z,-1.70
2019-03-02T03:40:01.817Z,-1.80
2019-03-02T03:42:36.900Z,-1.80
2019-03-02T03:45:12.550Z,-1.70
2019-03-02T03:47:46.084Z,-1.80
2019-03-02T03:50:19.623Z,-1.80
2019-03-02T03:52:54.403Z,-1.80
2019-03-02T03:55:27.415Z,-1.80
2019-03-02T03:58:02.743Z,-1.90
2019-03-02T04:00:38.759Z,-1.90
2019-03-02T04:03:13.274Z,-1.90
2019-03-02T04:05:42.056Z,-1.90
2019-03-02T04:08:14.910Z,-1.90
2019-03-02T04:10:49.760Z,-1.90
2019-03-02T04:13:23.743Z,-1.90
2019-03-02T04:15:56.102Z,-1.90
2019-03-02T04:18:57.919Z,-1.90
2019-03-02T04:21:33.986Z,-1.90
2019-03-02T04:24:04.616Z,-1.90
2019-03-02T04:26:38.619Z,-1.90
2019-03-02T04:29:12.322Z,-2.00
2019-03-02T04:31:48.544Z,-2.00
2019-03-02T04:34:22.509Z,-2.00
2019-03-02T04:36:53.548Z,-2.00
2019-03-02T04:39:23.825Z,-2.00
2019-03-02T04:41:56.070Z,-1.90
2019-03-02T04:44:29.724Z,-1.90
2019-03-02T04:47:04.612Z,-1.90
2019-03-02T04:49:36.734Z,-1.90
2019-03-02T04:52:11.567Z,-2.00
2019-03-02T04:54:47.038Z,-2.10
2019-03-02T04:57:21.026Z,-2.00
2019-03-02T04:59:56.677Z,-2.10
2019-03-02T05:02:31.487Z,-2.10
2019-03-02T05:05:04.829Z,-2.20
2019-03-02T05:07:39.247Z,-2.10
2019-03-02T05:10:10.393Z,-2.10
2019-03-02T05:12:45.383Z,-2.10
2019-03-02T05:15:18.251Z,-2.10
2019-03-02T05:17:50.463Z,-2.10
2019-03-02T05:20:22.897Z,-2.10
2019-03-02T05:22:57.038Z,-2.10
2019-03-02T05:25:29.726Z,-2.10
2019-03-02T05:28:03.750Z,-2.10
2019-03-02T05:30:38.539Z,-2.10
2019-03-02T05:33:11.999Z,-2.10
2019-03-02T05:35:47.706Z,-2.10
2019-03-02T05:38:19.372Z,-2.10
2019-03-02T05:40:49.948Z,-2.10
2019-03-02T05:43:23.590Z,-2.10
2019-03-02T05:45:53.005Z,-2.10
2019-03-02T05:48:28.895Z,-2.10
2019-03-02T05:51:03.796Z,-2.00
2019-03-02T05:53:36.162Z,-2.00
2019-03-02T05:56:10.943Z,-2.00
2019-03-02T05:58:47.717Z,-2.00
2019-03-02T06:01:21.407Z,-2.10
2019-03-02T06:03:54.627Z,-2.00
2019-03-02T06:06:24.877Z,-2.00
2019-03-02T06:08:55.559Z,-2.00
2019-03-02T06:11:29.440Z,-2.00
2019-03-02T06:14:02.340Z,-2.00
2019-03-02T06:16:35.647Z,-2.00
2019-03-02T06:19:08.872Z,-1.90
2019-03-02T06:21:42.915Z,-1.90
2019-03-02T06:24:15.502Z,-1.90
2019-03-02T06:26:50.206Z,-1.80
2019-03-02T06:29:22.304Z,-1.70
2019-03-02T06:31:55.527Z,-1.70
2019-03-02T06:34:29.279Z,-1.70
2019-03-02T06:37:04.255Z,-1.60
2019-03-02T06:39:40.905Z,-1.60
2019-03-02T06:42:11.807Z,-1.60
2019-03-02T06:44:41.771Z,-1.50
2019-03-02T06:47:13.959Z,-1.50
2019-03-02T06:49:45.607Z,-1.50
2019-03-02T06:52:25.017Z,-1.50
2019-03-02T06:54:55.303Z,-1.50
2019-03-02T06:57:29.311Z,-1.40
2019-03-02T07:00:02.979Z,-1.40
2019-03-02T07:02:35.876Z,-1.40
2019-03-02T07:05:08.746Z,-1.30
2019-03-02T07:07:40.480Z,-1.10
2019-03-02T07:10:17.683Z,-1.00
2019-03-02T07:12:48.384Z,-0.90
2019-03-02T07:15:22.597Z,-0.90
2019-03-02T07:18:09.163Z,-0.80
2019-03-02T07:20:43.459Z,-0.70
2019-03-02T07:23:15.770Z,-0.60
2019-03-02T07:25:50.560Z,-0.50
2019-03-02T07:28:21.374Z,-0.40
2019-03-02T07:30:54.090Z,-0.30
2019-03-02T07:33:27.455Z,-0.20
2019-03-02T07:36:00.323Z,-0.20
2019-03-02T07:38:32.355Z,-0.10
2019-03-02T07:41:07.611Z,-0.10
2019-03-02T07:43:45.924Z,0.00
2019-03-02T07:46:17.351Z,0.10
2019-03-02T07:48:52.041Z,0.20
2019-03-02T07:51:26.751Z,0.20
2019-03-02T07:54:02.038Z,0.30
2019-03-02T07:56:36.305Z,0.40
2019-03-02T07:59:09.955Z,0.40
2019-03-02T08:01:42.337Z,0.50
2019-03-02T08:04:17.070Z,0.60
2019-03-02T08:06:51.838Z,0.60
2019-03-02T08:09:25.899Z,0.60
2019-03-02T08:11:57.679Z,0.60
2019-03-02T08:14:30.079Z,0.70
2019-03-02T08:17:01.914Z,0.80
2019-03-02T08:19:35.108Z,0.90
2019-03-02T08:22:10.995Z,0.90
2019-03-02T08:24:43.802Z,0.90
2019-03-02T08:27:17.184Z,0.90
2019-03-02T08:29:53.888Z,0.90
2019-03-02T08:32:27.459Z,1.00
2019-03-02T08:34:57.707Z,1.10
2019-03-02T08:37:29.884Z,1.20
2019-03-02T08:40:01.915Z,1.20
2019-03-02T08:42:32.460Z,1.20
2019-03-02T08:45:08.319Z,1.30
2019-03-02T08:47:40.450Z,1.30
2019-03-02T08:50:13.904Z,1.40
2019-03-02T08:52:44.585Z,1.50
2019-03-02T08:55:16.268Z,1.60
2019-03-02T08:57:49.310Z,1.70
2019-03-02T09:00:25.569Z,1.70
2019-03-02T09:02:58.912Z,1.90
2019-03-02T09:05:43.572Z,1.90
2019-03-02T09:08:06.527Z,2.00
2019-03-02T09:10:40.094Z,2.00
2019-03-02T09:13:13.022Z,2.10
2019-03-02T09:15:45.444Z,2.10
2019-03-02T09:18:19.015Z,2.10
2019-03-02T09:20:52.044Z,2.10
2019-03-02T09:23:24.403Z,2.10
2019-03-02T09:26:00.999Z,2.00
2019-03-02T09:28:30.508Z,1.90
2019-03-02T09:31:03.283Z,1.90
2019-03-02T09:33:36.168Z,1.90
2019-03-02T09:36:08.930Z,1.80
2019-03-02T09:38:43.198Z,1.90
2019-03-02T09:41:17.855Z,1.90
2019-03-02T09:43:48.538Z,1.90
2019-03-02T09:46:24.828Z,1.90
2019-03-02T09:48:56.995Z,2.00
2019-03-02T09:51:27.587Z,2.00
2019-03-02T09:53:57.281Z,2.00
2019-03-02T09:56:31.171Z,2.10
2019-03-02T09:59:03.911Z,2.00
2019-03-02T10:01:39.236Z,2.00
2019-03-02T10:04:12.770Z,2.10
2019-03-02T10:06:47.834Z,2.20
2019-03-02T10:09:21.911Z,2.30
2019-03-02T10:11:55.265Z,2.30
2019-03-02T10:14:30.431Z,2.40
2019-03-02T10:17:05.025Z,2.40
2019-03-02T10:19:39.627Z,2.50
2019-03-02T10:22:11.903Z,2.60
2019-03-02T10:24:43.413Z,2.70
2019-03-02T10:27:17.204Z,2.70
2019-03-02T10:29:48.246Z,2.70
2019-03-02T10:32:19.640Z,2.80
2019-03-02T10:34:55.201Z,2.90
2019-03-02T10:37:28.863Z,2.90
2019-03-02T10:40:05.556Z,2.90
2019-03-02T10:42:39.903Z,3.00
2019-03-02T10:45:15.151Z,3.10
2019-03-02T10:47:48.914Z,3.20
2019-03-02T10:50:24.610Z,3.20
2019-03-02T10:52:59.643Z,3.30
2019-03-02T10:55:32.780Z,3.30
2019-03-02T10:58:06.975Z,3.30
2019-03-02T11:00:40.671Z,3.30
2019-03-02T11:03:15.678Z,3.40
2019-03-02T11:05:56.907Z,3.50
2019-03-02T11:08:41.451Z,3.50
2019-03-02T11:11:31.386Z,3.60
2019-03-02T11:14:27.763Z,3.70
2019-03-02T11:17:39.361Z,3.70
2019-03-02T11:20:30.271Z,3.80
2019-03-02T11:23:20.009Z,3.80
2019-03-02T11:26:11.993Z,3.80
2019-03-02T11:29:09.871Z,3.70
2019-03-02T11:32:05.559Z,3.80
2019-03-02T11:34:56.347Z,3.80
2019-03-02T11:37:49.433Z,3.90
2019-03-02T11:40:33.177Z,3.90
2019-03-02T11:43:23.633Z,4.00
2019-03-02T11:46:14.567Z,4.00
2019-03-02T11:49:04.267Z,4.10
2019-03-02T11:51:43.263Z,4.10
2019-03-02T11:54:30.874Z,4.10
2019-03-02T11:57:29.056Z,4.10
2019-03-02T12:00:37.770Z,4.20
2019-03-02T12:03:35.259Z,4.30
2019-03-02T12:06:33.639Z,4.40
2019-03-02T12:09:39.463Z,4.60
2019-03-02T12:12:19.908Z,4.60
2019-03-02T12:15:10.463Z,4.60
2019-03-02T12:18:16.152Z,4.50
2019-03-02T12:21:04.438Z,4.60
2019-03-02T12:23:52.255Z,4.50
2019-03-02T12:26:42.806Z,4.60
2019-03-02T12:29:46.089Z,4.60
2019-03-02T12:32:26.016Z,4.60
2019-03-02T12:35:03.682Z,4.60
2019-03-02T12:37:56.137Z,4.70
2019-03-02T12:40:44.195Z,4.70
2019-03-02T12:43:43.877Z,4.70
2019-03-02T12:46:27.654Z,4.80
2019-03-02T12:49:30.410Z,4.90
2019-03-02T12:52:21.697Z,4.90
2019-03-02T12:55:20.633Z,4.90
2019-03-02T12:58:08.062Z,4.90
2019-03-02T13:00:56.639Z,4.90
2019-03-02T13:03:38.306Z,4.90
2019-03-02T13:06:18.398Z,4.90
2019-03-02T13:09:09.154Z,4.90
2019-03-02T13:12:02.030Z,4.80
2019-03-02T13:14:55.366Z,4.80
2019-03-02T13:17:50.106Z,4.80
2019-03-02T13:20:27.947Z,4.80
2019-03-02T13:23:19.535Z,4.80
2019-03-02T13:26:13.648Z,4.80
2019-03-02T13:29:03.179Z,4.80
2019-03-02T13:31:53.654Z,4.80
2019-03-02T13:34:43.898Z,4.80
2019-03-02T13:37:22.454Z,4.80
2019-03-02T13:40:26.428Z,4.90
2019-03-02T13:43:14.371Z,4.90
2019-03-02T13:46:07.450Z,4.90
2019-03-02T13:49:01.764Z,4.80
2019-03-02T13:51:53.892Z,4.80
2019-03-02T13:55:02.204Z,4.90
2019-03-02T13:58:00.296Z,4.90
2019-03-02T14:00:44.167Z,4.90
2019-03-02T14:03:41.603Z,5.00
2019-03-02T14:06:41.973Z,5.00
2019-03-02T14:09:28.451Z,5.00
2019-03-02T14:12:22.806Z,4.90
2019-03-02T14:15:17.379Z,4.90
2019-03-02T14:18:10.203Z,4.90
2019-03-02T14:21:01.278Z,5.00
2019-03-02T14:23:49.158Z,4.90
2019-03-02T14:26:43.833Z,5.00
2019-03-02T14:29:32.671Z,4.90
2019-03-02T14:32:17.414Z,4.90
2019-03-02T14:35:05.025Z,4.80
2019-03-02T14:38:04.471Z,4.80
2019-03-02T14:40:47.184Z,4.80
2019-03-02T14:43:27.459Z,4.80
2019-03-02T14:46:12.072Z,4.80
2019-03-02T14:48:57.415Z,4.80
2019-03-02T14:51:47.768Z,4.80
2019-03-02T14:54:29.034Z,4.90
2019-03-02T14:57:25.757Z,4.90
2019-03-02T15:00:23.085Z,4.90
2019-03-02T15:03:25.031Z,4.90
2019-03-02T15:06:10.344Z,4.90
2019-03-02T15:09:00.254Z,4.90
2019-03-02T15:11:54.154Z,4.80
2019-03-02T15:14:48.143Z,4.80
2019-03-02T15:17:45.202Z,4.80
2019-03-02T15:20:32.589Z,4.70
2019-03-02T15:23:26.207Z,4.60
2019-03-02T15:26:23.455Z,4.60
2019-03-02T15:29:16.572Z,4.60
2019-03-02T15:32:09.782Z,4.60
2019-03-02T15:34:58.875Z,4.60
2019-03-02T15:37:39.336Z,4.60
2019-03-02T15:40:39.312Z,4.60
2019-03-02T15:43:19.122Z,4.60
2019-03-02T15:46:25.547Z,4.50
2019-03-02T15:49:20.720Z,4.50
2019-03-02T15:51:58.632Z,4.40
2019-03-02T15:54:43.463Z,4.40
2019-03-02T15:57:39.658Z,4.30
2019-03-02T16:00:25.570Z,4.40
2019-03-02T16:03:19.252Z,4.40
2019-03-02T16:06:01.136Z,4.30
2019-03-02T16:08:42.343Z,4.30
2019-03-02T16:11:32.849Z,4.30
2019-03-02T16:14:22.694Z,4.30
2019-03-02T16:17:03.536Z,4.30
2019-03-02T16:20:18.022Z,4.20
2019-03-02T16:22:57.062Z,4.10
2019-03-02T16:25:50.783Z,4.10
2019-03-02T16:28:39.025Z,4.00
2019-03-02T16:31:41.154Z,4.00
2019-03-02T16:34:31.399Z,3.90
2019-03-02T16:37:41.279Z,3.90
2019-03-02T16:40:31.556Z,3.90
2019-03-02T16:43:27.161Z,3.90
2019-03-02T16:46:18.082Z,3.90
2019-03-02T16:49:24.112Z,3.90
2019-03-02T16:52:10.084Z,3.90
2019-03-02T16:55:14.663Z,3.90
2019-03-02T16:58:17.538Z,3.90
2019-03-02T17:01:28.956Z,4.00
2019-03-02T17:04:18.880Z,3.90
2019-03-02T17:07:18.902Z,3.90
2019-03-02T17:10:24.887Z,3.90
2019-03-02T17:13:32.095Z,3.90
2019-03-02T17:16:26.887Z,3.80
2019-03-02T17:19:09.278Z,3.80
2019-03-02T17:21:52.880Z,3.80
2019-03-02T17:24:42.962Z,3.80
2019-03-02T17:27:48.579Z,3.80
2019-03-02T17:30:31.720Z,3.90
2019-03-02T17:33:22.792Z,3.90
2019-03-02T17:36:10.431Z,3.90
2019-03-02T17:39:04.384Z,3.90
2019-03-02T17:41:55.143Z,3.90
2019-03-02T17:44:55.373Z,3.90
2019-03-02T17:47:41.535Z,3.90
2019-03-02T17:50:45.304Z,3.90
2019-03-02T17:53:29.355Z,3.90
2019-03-02T17:56:30.303Z,3.90
2019-03-02T17:59:21.810Z,4.00
2019-03-02T18:02:08.990Z,3.90
2019-03-02T18:04:47.615Z,3.90
2019-03-02T18:07:43.106Z,3.90
2019-03-02T18:10:29.499Z,3.90
2019-03-02T18:13:35.680Z,3.90
2019-03-02T18:16:26.560Z,3.90
2019-03-02T18:19:03.780Z,3.90
2019-03-02T18:21:36.895Z,3.90
2019-03-02T18:24:12.318Z,3.90
2019-03-02T18:26:46.946Z,3.90
2019-03-02T18:29:25.233Z,3.90
2019-03-02T18:31:58.401Z,3.90
2019-03-02T18:34:31.327Z,3.90
2019-03-02T18:37:06.049Z,3.90
2019-03-02T18:39:40.398Z,3.90
2019-03-02T18:42:13.019Z,3.90
2019-03-02T18:44:46.207Z,3.90
2019-03-02T18:47:20.033Z,3.90
2019-03-02T18:50:07.247Z,3.90
2019-03-02T18:52:53.641Z,3.80
2019-03-02T18:55:25.838Z,3.80
2019-03-02T18:57:58.782Z,3.80
2019-03-02T19:00:33.188Z,3.70
2019-03-02T19:03:06.335Z,3.70
2019-03-02T19:05:40.108Z,3.70
2019-03-02T19:08:16.215Z,3.70
2019-03-02T19:10:51.171Z,3.70
2019-03-02T19:13:24.282Z,3.70
2019-03-02T19:15:59.423Z,3.70
2019-03-02T19:18:32.063Z,3.70
2019-03-02T19:21:05.449Z,3.60
2019-03-02T19:23:39.199Z,3.60
2019-03-02T19:26:12.287Z,3.60
2019-03-02T19:28:43.327Z,3.60
2019-03-02T19:31:13.906Z,3.50
2019-03-02T19:33:45.283Z,3.50
2019-03-02T19:36:18.495Z,3.40
2019-03-02T19:38:48.882Z,3.40
2019-03-02T19:41:18.531Z,3.50
2019-03-02T19:43:51.295Z,3.50
2019-03-02T19:46:25.219Z,3.50
2019-03-02T19:48:59.903Z,3.50
2019-03-02T19:51:34.495Z,3.50
2019-03-02T19:54:06.374Z,3.50
2019-03-02T19:56:37.931Z,3.60
2019-03-02T19:59:11.648Z,3.60
2019-03-02T20:01:51.243Z,3.60
2019-03-02T20:04:24.286Z,3.60
2019-03-02T20:06:58.912Z,3.60
2019-03-02T20:09:31.967Z,3.60
2019-03-02T20:12:04.255Z,3.60
2019-03-02T20:14:37.403Z,3.60
2019-03-02T20:17:08.547Z,3.60
2019-03-02T20:19:40.187Z,3.60
2019-03-02T20:22:14.942Z,3.60
2019-03-02T20:24:48.736Z,3.60
2019-03-02T20:27:20.993Z,3.60
2019-03-02T20:29:53.691Z,3.50
2019-03-02T20:32:23.678Z,3.50
2019-03-02T20:34:54.644Z,3.50
2019-03-02T20:37:28.703Z,3.50
2019-03-02T20:40:00.074Z,3.50
2019-03-02T20:42:33.601Z,3.50
2019-03-02T20:45:06.725Z,3.50
2019-03-02T20:47:40.496Z,3.50
2019-03-02T20:50:12.354Z,3.50
2019-03-02T20:52:43.496Z,3.40
2019-03-02T20:55:19.327Z,3.40
2019-03-02T20:57:50.310Z,3.40
2019-03-02T21:00:23.294Z,3.40
2019-03-02T21:02:53.291Z,3.30
2019-03-02T21:05:25.235Z,3.40
2019-03-02T21:07:56.719Z,3.30
2019-03-02T21:10:28.095Z,3.30
2019-03-02T21:12:58.382Z,3.30
2019-03-02T21:15:34.460Z,3.20
2019-03-02T21:18:18.890Z,3.30
2019-03-02T21:20:51.889Z,3.30
2019-03-02T21:23:25.607Z,3.20
2019-03-02T21:25:59.871Z,3.20
2019-03-02T21:28:31.268Z,3.20
2019-03-02T21:31:02.703Z,3.10
2019-03-02T21:33:34.884Z,3.10
2019-03-02T21:36:07.087Z,3.10
2019-03-02T21:38:41.024Z,3.10
2019-03-02T21:41:14.877Z,3.10
2019-03-02T21:43:49.691Z,3.00
2019-03-02T21:46:23.422Z,3.00
2019-03-02T21:48:57.095Z,3.00
2019-03-02T21:51:31.239Z,3.00
2019-03-02T21:54:05.787Z,3.00
2019-03-02T21:56:43.142Z,2.90
2019-03-02T21:59:17.733Z,2.90
2019-03-02T22:01:52.447Z,2.90
2019-03-02T22:04:23.131Z,2.90
2019-03-02T22:06:53.620Z,2.90
2019-03-02T22:09:23.306Z,2.90
2019-03-02T22:11:53.291Z,2.90
2019-03-02T22:14:23.388Z,3.00
2019-03-02T22:16:53.681Z,2.90
2019-03-02T22:19:28.516Z,2.90
2019-03-02T22:22:02.727Z,2.90
2019-03-02T22:24:36.192Z,2.90
2019-03-02T22:27:09.027Z,2.80
2019-03-02T22:29:42.782Z,2.80
2019-03-02T22:32:17.662Z,2.80
2019-03-02T22:34:51.395Z,2.80
2019-03-02T22:37:23.266Z,2.80
2019-03-02T22:39:53.255Z,2.80
2019-03-02T22:42:25.640Z,2.80
2019-03-02T22:45:00.416Z,2.80
2019-03-02T22:47:32.131Z,2.80
2019-03-02T22:50:07.616Z,2.90
2019-03-02T22:52:39.794Z,2.90
2019-03-02T22:55:16.252Z,2.80
2019-03-02T22:57:48.962Z,2.80
2019-03-02T23:00:57.187Z,2.80
2019-03-02T23:03:27.430Z,2.80
2019-03-02T23:06:00.646Z,2.80
2019-03-02T23:08:34.410Z,2.80
2019-03-02T23:11:07.393Z,2.80
2019-03-02T23:13:39.086Z,2.80
2019-03-02T23:16:14.977Z,2.80
2019-03-02T23:18:49.251Z,2.70
2019-03-02T23:21:19.036Z,2.70
2019-03-02T23:23:49.776Z,2.70
2019-03-02T23:26:22.143Z,2.70
2019-03-02T23:28:55.851Z,2.70
2019-03-02T23:31:28.577Z,2.70
2019-03-02T23:34:02.312Z,2.80
2019-03-02T23:36:34.687Z,2.70
2019-03-02T23:39:09.731Z,2.70
2019-03-02T23:41:43.463Z,2.70
2019-03-02T23:44:14.079Z,2.70
2019-03-02T23:46:47.744Z,2.80
2019-03-02T23:49:20.866Z,2.80
2019-03-02T23:51:55.876Z,2.80
2019-03-02T23:54:32.127Z,2.90
2019-03-02T23:57:05.375Z,2.80
2019-03-02T23:59:38.558Z,2.80
